Terminal Aerodrome Forecast
Issued by NWS

Home | Current Version | Previous Version | Text Only | Print | Product List | Glossary On
Versions: 1 2 3 4 5 6 7 8 9 10 11 12 13 14 15 16 17 18
460
FTUS43 KDLH 201742
TAFHYR
TAF
KHYR 201742Z 2018/2118 15013G20KT P6SM -SHRA VCTS SCT015 OVC035CB
     FM202000 16013G20KT 6SM SHRA VCTS OVC012CB
     FM202200 19012G19KT 3SM SHRA VCTS OVC008CB
     FM210200 26010KT 6SM -SHRA OVC008
     FM210700 23005KT 5SM BR BKN008
     FM211300 24008KT P6SM SCT250=

USA.gov is the U.S. government's official web portal to all federal, state and local government web resources and services.